Terminal Aerodrome Forecast
Issued by NWS Blacksburg, VA

Current Version | Previous Version | Graphics & Text | Print | Product List | Glossary On
Versions: 1 2 3 4 5 6 7 8 9 10 11 12 13 14 15 16 17 18 19 20 21 22 23
000
FTUS41 KRNK 281731
TAFBLF
TAF
KBLF 281731Z 2818/2918 23009G18KT P6SM BKN250
     FM290000 22008KT P6SM SCT100 BKN250
     FM290600 25006KT P6SM -SHRA SCT030 OVC100
     FM290900 29008KT 4SM -SHRA SCT012 OVC030
     FM291300 28007KT P6SM OVC025=

USA.gov is the U.S. government's official web portal to all federal, state and local government web resources and services.